createdAt,value
2023-04-07T00:02:07.144Z,22.60
2023-04-07T00:04:35.551Z,21.00
2023-04-07T00:07:04.045Z,22.10
2023-04-07T00:09:32.589Z,18.90
2023-04-07T00:12:02.853Z,21.90
2023-04-07T00:14:30.904Z,23.00
2023-04-07T00:16:59.115Z,22.80
2023-04-07T00:19:27.377Z,23.60
2023-04-07T00:21:55.504Z,21.60
2023-04-07T00:24:33.337Z,25.40
2023-04-07T00:27:02.750Z,25.90
2023-04-07T00:29:31.317Z,24.30
2023-04-07T00:31:59.420Z,23.90
2023-04-07T00:34:27.542Z,24.60
2023-04-07T00:36:56.421Z,25.80
2023-04-07T00:39:24.529Z,26.20
2023-04-07T00:41:52.858Z,25.90
2023-04-07T00:44:21.097Z,25.80
2023-04-07T00:46:49.234Z,24.30
2023-04-07T00:49:20.297Z,28.70
2023-04-07T00:51:48.614Z,22.00
2023-04-07T00:54:18.907Z,24.20
2023-04-07T00:56:47.491Z,22.00
2023-04-07T00:59:16.153Z,23.10
2023-04-07T01:01:56.464Z,23.90
2023-04-07T01:04:34.571Z,26.20
2023-04-07T01:07:11.940Z,25.10
2023-04-07T01:10:05.310Z,22.50
2023-04-07T01:13:01.652Z,22.70
2023-04-07T01:15:34.015Z,21.00
2023-04-07T01:18:26.820Z,24.90
2023-04-07T01:21:01.662Z,24.60
2023-04-07T01:23:56.382Z,24.70
2023-04-07T01:26:30.062Z,23.70
2023-04-07T01:29:20.145Z,22.90
2023-04-07T01:31:50.416Z,25.10
2023-04-07T01:34:19.719Z,20.70
2023-04-07T01:36:51.503Z,20.70
2023-04-07T01:39:20.214Z,20.30
2023-04-07T01:41:51.560Z,19.50
2023-04-07T01:44:20.442Z,20.20
2023-04-07T01:46:51.328Z,24.50
2023-04-07T01:49:19.695Z,22.00
2023-04-07T01:51:50.712Z,21.80
2023-04-07T01:54:19.373Z,18.70
2023-04-07T01:56:47.582Z,22.20
2023-04-07T01:59:15.992Z,19.70
2023-04-07T02:01:44.479Z,19.30
2023-04-07T02:04:17.591Z,20.00
2023-04-07T02:06:54.990Z,25.70
2023-04-07T02:09:32.416Z,18.80
2023-04-07T02:12:05.405Z,18.70
2023-04-07T02:14:37.090Z,19.30
2023-04-07T02:17:09.848Z,23.50
2023-04-07T02:19:38.203Z,22.50
2023-04-07T02:22:07.201Z,24.80
2023-04-07T02:24:35.648Z,23.30
2023-04-07T02:27:04.123Z,23.80
2023-04-07T02:29:32.335Z,25.10
2023-04-07T02:32:00.768Z,26.00
2023-04-07T02:34:31.285Z,23.20
2023-04-07T02:36:59.733Z,24.10
2023-04-07T02:39:28.745Z,28.50
2023-04-07T02:41:57.218Z,24.70
2023-04-07T02:44:25.885Z,23.80
2023-04-07T02:46:54.087Z,27.20
2023-04-07T02:49:22.234Z,27.80
2023-04-07T02:51:51.007Z,25.50
2023-04-07T02:54:19.257Z,24.50
2023-04-07T02:56:47.630Z,25.70
2023-04-07T02:59:15.886Z,26.50
2023-04-07T03:01:44.746Z,24.40
2023-04-07T03:04:13.569Z,27.50
2023-04-07T03:06:41.865Z,19.50
2023-04-07T03:09:15.018Z,21.40
2023-04-07T03:11:43.472Z,25.10
2023-04-07T03:14:11.757Z,27.20
2023-04-07T03:16:48.507Z,29.30
2023-04-07T03:19:17.097Z,24.20
2023-04-07T03:21:48.756Z,25.20
2023-04-07T03:24:16.994Z,25.00
2023-04-07T03:26:47.461Z,26.90
2023-04-07T03:29:20.513Z,27.00
2023-04-07T03:31:48.965Z,29.20
2023-04-07T03:34:18.461Z,27.80
2023-04-07T03:36:46.751Z,26.80
2023-04-07T03:39:14.905Z,28.30
2023-04-07T03:41:42.984Z,28.00
2023-04-07T03:44:11.645Z,22.80
2023-04-07T03:46:40.232Z,26.00
2023-04-07T03:49:09.072Z,26.90
2023-04-07T03:51:37.581Z,25.90
2023-04-07T03:54:07.682Z,23.90
2023-04-07T03:56:40.310Z,31.40
2023-04-07T03:59:08.930Z,28.10
2023-04-07T04:01:40.826Z,24.90
2023-04-07T04:04:13.382Z,27.20
2023-04-07T04:06:42.127Z,26.70
2023-04-07T04:11:52.669Z,29.00
2023-04-07T04:14:21.027Z,24.10
2023-04-07T04:16:56.511Z,27.00
2023-04-07T04:19:31.782Z,26.70
2023-04-07T04:22:01.871Z,27.80
2023-04-07T04:24:33.326Z,28.20
2023-04-07T04:27:02.836Z,26.60
2023-04-07T04:29:33.032Z,27.30
2023-04-07T04:32:02.264Z,28.00
2023-04-07T04:34:31.753Z,24.70
2023-04-07T04:37:00.648Z,29.80
2023-04-07T04:39:28.770Z,28.10
2023-04-07T04:41:59.634Z,27.10
2023-04-07T04:44:32.966Z,26.50
2023-04-07T04:47:02.373Z,27.80
2023-04-07T04:49:32.282Z,27.00
2023-04-07T04:52:02.799Z,27.70
2023-04-07T04:54:36.390Z,26.20
2023-04-07T04:57:04.840Z,24.40
2023-04-07T04:59:34.130Z,27.50
2023-04-07T05:02:04.520Z,25.60
2023-04-07T05:04:33.187Z,26.40
2023-04-07T05:07:08.992Z,27.00
2023-04-07T05:09:37.531Z,27.30
2023-04-07T05:12:06.142Z,27.60
2023-04-07T05:14:38.050Z,26.80
2023-04-07T05:17:07.615Z,34.80
2023-04-07T05:19:35.950Z,25.50
2023-04-07T05:22:10.949Z,27.50
2023-04-07T05:24:44.844Z,27.90
2023-04-07T05:27:13.082Z,28.00
2023-04-07T05:29:41.797Z,27.90
2023-04-07T05:32:13.779Z,30.90
2023-04-07T05:34:42.369Z,31.50
2023-04-07T05:37:11.854Z,27.30
2023-04-07T05:39:40.110Z,31.30
2023-04-07T05:42:09.124Z,28.00
2023-04-07T05:44:38.239Z,28.90
2023-04-07T05:47:09.220Z,30.70
2023-04-07T05:49:38.046Z,35.20
2023-04-07T05:52:08.207Z,34.90
2023-04-07T05:54:41.022Z,32.00
2023-04-07T05:57:11.420Z,33.10
2023-04-07T05:59:41.259Z,34.80
2023-04-07T06:02:09.675Z,32.40
2023-04-07T06:04:39.655Z,36.00
2023-04-07T06:07:09.971Z,30.70
2023-04-07T06:09:39.226Z,31.80
2023-04-07T06:12:09.468Z,27.40
2023-04-07T06:14:38.707Z,27.90
2023-04-07T06:17:07.284Z,30.00
2023-04-07T06:19:35.734Z,33.70
2023-04-07T06:22:04.115Z,28.00
2023-04-07T06:24:32.613Z,29.20
2023-04-07T06:27:02.194Z,28.90
2023-04-07T06:29:32.973Z,28.70
2023-04-07T06:32:09.126Z,28.60
2023-04-07T06:34:40.353Z,29.60
2023-04-07T06:37:13.360Z,28.80
2023-04-07T06:39:41.475Z,28.50
2023-04-07T06:42:09.565Z,29.50
2023-04-07T06:44:40.790Z,27.90
2023-04-07T06:47:09.790Z,28.80
2023-04-07T06:49:38.060Z,28.80
2023-04-07T06:52:06.564Z,28.80
2023-04-07T06:54:34.716Z,26.60
2023-04-07T06:57:02.828Z,29.10
2023-04-07T06:59:30.853Z,29.60
2023-04-07T07:01:59.160Z,25.10
2023-04-07T07:04:27.795Z,27.60
2023-04-07T07:06:56.186Z,31.00
2023-04-07T07:09:24.787Z,27.20
2023-04-07T07:11:52.977Z,30.70
2023-04-07T07:14:21.336Z,26.70
2023-04-07T07:16:49.718Z,31.10
2023-04-07T07:19:17.812Z,31.80
2023-04-07T07:21:46.271Z,31.40
2023-04-07T07:24:15.116Z,33.00
2023-04-07T07:26:44.608Z,28.10
2023-04-07T07:29:13.060Z,29.40
2023-04-07T07:31:41.720Z,28.20
2023-04-07T07:34:09.910Z,28.10
2023-04-07T07:36:38.071Z,26.10
2023-04-07T07:39:07.333Z,29.40
2023-04-07T07:41:35.765Z,27.60
2023-04-07T07:44:03.875Z,27.80
2023-04-07T07:46:32.250Z,31.60
2023-04-07T07:49:00.379Z,30.00
2023-04-07T07:51:28.510Z,30.30
2023-04-07T07:53:56.944Z,28.20
2023-04-07T07:56:25.123Z,31.20
2023-04-07T07:58:53.373Z,29.50
2023-04-07T08:01:21.755Z,33.80
2023-04-07T08:03:50.309Z,26.40
2023-04-07T08:06:18.674Z,24.80
2023-04-07T08:08:46.824Z,26.20
2023-04-07T08:11:14.944Z,31.20
2023-04-07T08:13:46.060Z,29.90
2023-04-07T08:16:14.809Z,34.00
2023-04-07T08:18:42.912Z,26.90
2023-04-07T08:21:11.399Z,32.00
2023-04-07T08:23:39.848Z,27.90
2023-04-07T08:26:08.032Z,26.90
2023-04-07T08:28:36.606Z,32.30
2023-04-07T08:31:05.486Z,29.20
2023-04-07T08:33:33.812Z,37.20
2023-04-07T08:36:02.026Z,29.90
2023-04-07T08:38:31.414Z,32.10
2023-04-07T08:41:10.658Z,28.50
2023-04-07T08:43:39.654Z,33.30
2023-04-07T08:46:09.975Z,28.80
2023-04-07T08:48:39.109Z,34.50
2023-04-07T08:51:10.406Z,30.40
2023-04-07T08:53:50.281Z,29.60
2023-04-07T08:56:19.134Z,25.10
2023-04-07T08:58:52.462Z,29.90
2023-04-07T09:01:21.528Z,29.10
2023-04-07T09:03:50.297Z,30.60
2023-04-07T09:06:18.744Z,27.80
2023-04-07T09:08:47.289Z,29.10
2023-04-07T09:11:15.537Z,26.40
2023-04-07T09:13:43.709Z,33.70
2023-04-07T09:16:14.389Z,29.90
2023-04-07T09:18:42.853Z,37.70
2023-04-07T09:21:11.776Z,38.70
2023-04-07T09:23:42.107Z,29.20
2023-04-07T09:26:28.413Z,29.40
2023-04-07T09:29:02.902Z,32.10
2023-04-07T09:31:55.442Z,33.90
2023-04-07T09:36:59.432Z,29.40
2023-04-07T09:39:27.560Z,25.20
2023-04-07T09:41:55.965Z,29.00
2023-04-07T09:44:25.284Z,29.50
2023-04-07T09:46:59.030Z,26.60
2023-04-07T09:49:27.428Z,29.10
2023-04-07T09:52:00.853Z,30.40
2023-04-07T09:54:36.180Z,29.10
2023-04-07T09:57:06.267Z,29.60
2023-04-07T09:59:37.064Z,28.90
2023-04-07T10:02:06.633Z,32.20
2023-04-07T10:04:35.057Z,29.60
2023-04-07T10:07:04.489Z,37.00
2023-04-07T10:09:32.906Z,29.40
2023-04-07T10:12:01.461Z,24.60
2023-04-07T10:14:33.571Z,28.00
2023-04-07T10:17:04.354Z,27.90
2023-04-07T10:19:34.729Z,27.70
2023-04-07T10:22:05.554Z,30.90
2023-04-07T10:24:58.769Z,32.50
2023-04-07T10:27:35.463Z,28.60
2023-04-07T10:30:07.593Z,23.80
2023-04-07T10:32:50.384Z,25.60
2023-04-07T10:35:18.674Z,31.30
2023-04-07T10:38:05.951Z,27.90
2023-04-07T10:40:35.792Z,27.60
2023-04-07T10:43:04.690Z,27.60
2023-04-07T10:45:48.833Z,23.80
2023-04-07T10:48:18.744Z,21.40
2023-04-07T10:51:08.559Z,25.80
2023-04-07T10:53:37.104Z,28.50
2023-04-07T10:56:06.029Z,23.80
2023-04-07T10:58:34.307Z,23.50
2023-04-07T11:01:11.665Z,24.60
2023-04-07T11:03:42.779Z,27.60
2023-04-07T11:06:13.223Z,21.80
2023-04-07T11:08:48.392Z,23.00
2023-04-07T11:11:37.451Z,25.70
2023-04-07T11:14:06.260Z,26.40
2023-04-07T11:16:42.520Z,30.80
2023-04-07T11:19:11.667Z,29.20
2023-04-07T11:21:40.054Z,28.30
2023-04-07T11:24:08.251Z,26.50
2023-04-07T11:26:42.610Z,25.00
2023-04-07T11:29:12.268Z,27.00
2023-04-07T11:31:40.702Z,27.80
2023-04-07T11:34:09.310Z,23.90
2023-04-07T11:36:41.949Z,23.90
2023-04-07T11:39:21.567Z,28.80
2023-04-07T11:41:51.173Z,26.60
2023-04-07T11:44:20.164Z,26.40
2023-04-07T11:46:59.434Z,23.80
2023-04-07T11:49:28.757Z,26.10
2023-04-07T11:52:05.987Z,22.60
2023-04-07T11:54:48.516Z,22.50
2023-04-07T11:57:26.147Z,26.60
2023-04-07T12:00:08.264Z,25.70
2023-04-07T12:02:37.350Z,23.40
2023-04-07T12:05:06.818Z,24.20
2023-04-07T12:07:36.237Z,23.40
2023-04-07T12:10:21.617Z,22.10
2023-04-07T12:12:50.143Z,24.10
2023-04-07T12:15:18.386Z,27.40
2023-04-07T12:17:48.633Z,22.10
2023-04-07T12:20:17.090Z,24.40
2023-04-07T12:22:45.219Z,26.60
2023-04-07T12:25:14.016Z,25.00
2023-04-07T12:27:43.812Z,25.10
2023-04-07T12:30:13.669Z,23.20
2023-04-07T12:32:41.937Z,22.40
2023-04-07T12:35:10.338Z,25.00
2023-04-07T12:37:38.673Z,23.10
2023-04-07T12:40:07.734Z,27.10
2023-04-07T12:42:36.209Z,22.50
2023-04-07T12:45:04.827Z,21.60
2023-04-07T12:47:34.053Z,21.80
2023-04-07T12:50:02.906Z,25.10
2023-04-07T12:52:32.156Z,25.20
2023-04-07T12:55:00.304Z,23.70
2023-04-07T12:57:29.055Z,22.60
2023-04-07T12:59:57.365Z,27.00
2023-04-07T13:02:25.866Z,29.70
2023-04-07T13:04:54.446Z,22.60
2023-04-07T13:07:22.518Z,19.90
2023-04-07T13:09:50.875Z,24.90
2023-04-07T13:12:19.042Z,22.80
2023-04-07T13:14:59.145Z,24.00
2023-04-07T13:17:29.214Z,22.20
2023-04-07T13:19:57.537Z,24.60
2023-04-07T13:22:25.661Z,28.50
2023-04-07T13:24:54.124Z,23.00
2023-04-07T13:27:22.219Z,25.30
2023-04-07T13:29:50.381Z,24.80
2023-04-07T13:32:19.070Z,26.60
2023-04-07T13:34:47.523Z,24.30
2023-04-07T13:37:16.755Z,23.80
2023-04-07T13:39:46.062Z,25.50
2023-04-07T13:42:17.649Z,21.90
2023-04-07T13:44:47.699Z,23.30
2023-04-07T13:47:19.692Z,24.30
2023-04-07T13:49:49.257Z,25.90
2023-04-07T13:52:17.933Z,28.00
2023-04-07T13:54:46.060Z,22.80
2023-04-07T13:57:20.690Z,21.40
2023-04-07T13:59:52.388Z,23.90
2023-04-07T14:02:21.059Z,29.10
2023-04-07T14:04:49.704Z,23.00
2023-04-07T14:07:17.909Z,27.40
2023-04-07T14:09:48.317Z,26.20
2023-04-07T14:12:16.538Z,20.20
2023-04-07T14:14:44.620Z,21.50
2023-04-07T14:17:13.109Z,25.20
2023-04-07T14:19:42.259Z,22.60
2023-04-07T14:22:11.060Z,27.90
2023-04-07T14:24:39.501Z,23.00
2023-04-07T14:27:07.863Z,23.50
2023-04-07T14:29:35.964Z,23.10
2023-04-07T14:32:04.290Z,24.80
2023-04-07T14:34:32.570Z,23.90
2023-04-07T14:37:00.696Z,25.00
2023-04-07T14:39:29.548Z,26.90
2023-04-07T14:41:57.809Z,26.60
2023-04-07T14:44:25.898Z,21.20
2023-04-07T14:46:54.315Z,25.30
2023-04-07T14:49:22.653Z,20.00
2023-04-07T14:51:50.821Z,22.20
2023-04-07T14:54:19.277Z,22.20
2023-04-07T14:56:47.777Z,19.30
2023-04-07T14:59:15.850Z,21.70
2023-04-07T15:01:44.023Z,23.80
2023-04-07T15:04:12.700Z,20.50
2023-04-07T15:06:43.025Z,16.80
2023-04-07T15:09:11.542Z,16.40
2023-04-07T15:11:39.853Z,21.60
2023-04-07T15:14:07.947Z,17.00
2023-04-07T15:16:36.219Z,16.30
2023-04-07T15:19:06.087Z,18.20
2023-04-07T15:21:34.159Z,15.00
2023-04-07T15:24:02.293Z,21.40
2023-04-07T15:26:30.764Z,17.00
2023-04-07T15:28:59.130Z,15.10
2023-04-07T15:31:28.606Z,13.60
2023-04-07T15:33:56.797Z,16.30
2023-04-07T15:36:24.839Z,14.90
2023-04-07T15:38:52.947Z,20.20
2023-04-07T15:41:21.902Z,13.20
2023-04-07T15:43:51.596Z,15.90
2023-04-07T15:46:19.855Z,16.40
2023-04-07T15:48:48.344Z,14.20
2023-04-07T15:51:16.386Z,15.40
2023-04-07T15:53:44.593Z,19.70
2023-04-07T15:56:13.826Z,15.80
2023-04-07T15:58:42.114Z,14.80
2023-04-07T16:01:10.287Z,14.60
2023-04-07T16:03:38.776Z,17.30
2023-04-07T16:06:06.989Z,14.40
2023-04-07T16:08:35.121Z,15.50
2023-04-07T16:11:03.304Z,17.80
2023-04-07T16:13:31.459Z,13.10
2023-04-07T16:15:59.579Z,13.80
2023-04-07T16:18:27.725Z,16.10
2023-04-07T16:20:56.001Z,23.50
2023-04-07T16:23:24.441Z,13.70
2023-04-07T16:25:52.713Z,15.30
2023-04-07T16:28:21.044Z,15.90
2023-04-07T16:30:49.242Z,12.30
2023-04-07T16:33:17.406Z,14.00
2023-04-07T16:35:45.602Z,16.30
2023-04-07T16:38:13.913Z,12.70
2023-04-07T16:41:00.623Z,13.80
2023-04-07T16:43:31.619Z,15.20
2023-04-07T16:46:00.638Z,15.40
2023-04-07T16:48:28.914Z,14.20
2023-04-07T16:50:57.308Z,14.70
2023-04-07T16:53:25.677Z,16.80
2023-04-07T16:55:53.872Z,14.60
2023-04-07T16:58:22.067Z,15.20
2023-04-07T17:00:50.707Z,19.40
2023-04-07T17:03:19.334Z,15.30
2023-04-07T17:05:48.453Z,18.30
2023-04-07T17:08:16.787Z,26.40
2023-04-07T17:10:45.420Z,20.00
2023-04-07T17:13:13.466Z,18.30
2023-04-07T17:15:41.633Z,16.90
2023-04-07T17:18:09.799Z,16.60
2023-04-07T17:20:38.310Z,24.60
2023-04-07T17:23:06.424Z,22.80
2023-04-07T17:25:34.457Z,16.80
2023-04-07T17:28:02.999Z,18.30
2023-04-07T17:30:31.416Z,18.70
2023-04-07T17:32:59.563Z,15.90
2023-04-07T17:35:27.880Z,19.20
2023-04-07T17:37:57.489Z,21.20
2023-04-07T17:40:25.605Z,15.40
2023-04-07T17:42:54.117Z,16.30
2023-04-07T17:45:23.105Z,16.50
2023-04-07T17:47:51.850Z,15.80
2023-04-07T17:50:20.016Z,19.00
2023-04-07T17:52:48.168Z,15.70
2023-04-07T17:55:16.532Z,16.90
2023-04-07T17:57:44.904Z,19.10
2023-04-07T18:00:13.460Z,15.10
2023-04-07T18:02:41.905Z,18.00
2023-04-07T18:05:10.764Z,16.00
2023-04-07T18:07:39.021Z,14.00
2023-04-07T18:10:08.388Z,21.20
2023-04-07T18:12:36.774Z,16.80
2023-04-07T18:31:12.586Z,22.50
2023-04-07T18:33:41.078Z,24.30
2023-04-07T18:36:09.208Z,21.50
2023-04-07T18:38:41.157Z,22.70
2023-04-07T18:41:09.601Z,18.60
2023-04-07T18:43:38.037Z,19.10
2023-04-07T18:46:06.080Z,19.10
2023-04-07T18:48:34.985Z,20.00
2023-04-07T18:51:03.537Z,19.50
2023-04-07T18:53:31.963Z,20.60
2023-04-07T18:56:00.437Z,25.40
2023-04-07T18:58:29.453Z,19.90
2023-04-07T19:00:59.783Z,29.00
2023-04-07T19:03:28.179Z,24.40
2023-04-07T19:05:56.764Z,21.80
2023-04-07T19:08:25.529Z,24.00
2023-04-07T19:10:53.998Z,23.20
2023-04-07T19:13:22.085Z,21.90
2023-04-07T19:15:51.578Z,22.70
2023-04-07T19:18:19.955Z,20.40
2023-04-07T19:20:48.848Z,24.40
2023-04-07T19:23:17.349Z,27.90
2023-04-07T19:25:45.982Z,27.40
2023-04-07T19:28:14.439Z,20.30
2023-04-07T19:30:43.242Z,23.30
2023-04-07T19:33:12.079Z,19.50
2023-04-07T19:35:40.613Z,24.50
2023-04-07T19:38:08.873Z,23.00
2023-04-07T19:40:37.563Z,21.20
2023-04-07T19:43:06.814Z,24.00
2023-04-07T19:45:35.216Z,21.20
2023-04-07T19:48:03.774Z,28.60
2023-04-07T19:50:32.354Z,23.00
2023-04-07T19:53:00.439Z,19.90
2023-04-07T19:55:30.153Z,22.80
2023-04-07T19:57:58.411Z,20.40
2023-04-07T20:00:28.259Z,21.30
2023-04-07T20:02:57.097Z,20.80
2023-04-07T20:05:25.367Z,21.30
2023-04-07T20:07:53.529Z,19.80
2023-04-07T20:10:21.634Z,23.70
2023-04-07T20:12:49.721Z,23.50
2023-04-07T20:15:18.085Z,31.10
2023-04-07T20:17:48.095Z,25.90
2023-04-07T20:20:17.310Z,36.90
2023-04-07T20:22:45.588Z,38.10
2023-04-07T20:25:13.759Z,22.20
2023-04-07T20:27:41.908Z,24.50
2023-04-07T20:30:10.578Z,24.00
2023-04-07T20:32:40.291Z,24.80
2023-04-07T20:35:09.241Z,24.60
2023-04-07T20:37:37.451Z,21.30
2023-04-07T20:40:07.102Z,25.30
2023-04-07T20:42:35.882Z,32.60
2023-04-07T20:45:06.577Z,40.50
2023-04-07T20:47:36.831Z,29.40
2023-04-07T20:50:05.719Z,29.20
2023-04-07T20:52:36.894Z,46.50
2023-04-07T20:55:06.422Z,28.30
2023-04-07T20:57:34.660Z,25.90
2023-04-07T21:00:03.023Z,32.80
2023-04-07T21:02:31.398Z,26.30
2023-04-07T21:05:00.287Z,25.80
2023-04-07T21:07:28.419Z,23.20
2023-04-07T21:09:56.972Z,27.60
2023-04-07T21:12:25.038Z,24.90
2023-04-07T21:14:53.211Z,23.90
2023-04-07T21:17:21.908Z,29.10
2023-04-07T21:19:49.973Z,25.50
2023-04-07T21:22:18.169Z,24.90
2023-04-07T21:24:46.237Z,22.10
2023-04-07T21:27:14.470Z,19.30
2023-04-07T21:29:42.767Z,24.50
2023-04-07T21:32:11.473Z,26.60
2023-04-07T21:34:40.360Z,31.80
2023-04-07T21:37:08.412Z,34.20
2023-04-07T21:39:36.793Z,27.10
2023-04-07T21:42:04.889Z,29.70
2023-04-07T21:44:33.286Z,27.20
2023-04-07T21:47:01.397Z,27.50
2023-04-07T21:49:29.435Z,25.50
2023-04-07T21:51:58.316Z,24.40
2023-04-07T21:54:26.491Z,29.50
2023-04-07T21:56:54.551Z,32.20
2023-04-07T21:59:23.151Z,25.20
2023-04-07T22:01:51.673Z,23.70
2023-04-07T22:04:20.210Z,25.40
2023-04-07T22:06:48.336Z,28.90
2023-04-07T22:09:16.887Z,28.50
2023-04-07T22:11:44.978Z,25.70
2023-04-07T22:14:13.117Z,32.00
2023-04-07T22:16:41.435Z,32.80
2023-04-07T22:19:09.780Z,32.00
2023-04-07T22:21:37.847Z,26.40
2023-04-07T22:24:06.315Z,27.30
2023-04-07T22:26:34.683Z,24.10
2023-04-07T22:29:02.863Z,26.30
2023-04-07T22:31:30.927Z,26.40
2023-04-07T22:33:59.215Z,31.10
2023-04-07T22:36:27.694Z,27.50
2023-04-07T22:38:56.546Z,28.10
2023-04-07T22:41:24.660Z,33.10
2023-04-07T22:43:52.804Z,29.00
2023-04-07T22:46:21.214Z,30.00
2023-04-07T22:48:49.464Z,37.80
2023-04-07T22:51:17.729Z,32.20
2023-04-07T22:53:46.305Z,31.30
2023-04-07T22:56:14.447Z,35.00
2023-04-07T22:58:42.486Z,32.20
2023-04-07T23:01:11.390Z,30.40
2023-04-07T23:03:39.572Z,26.90
2023-04-07T23:06:07.810Z,26.90
2023-04-07T23:08:36.254Z,24.10
2023-04-07T23:11:08.930Z,27.40
2023-04-07T23:13:38.234Z,20.70
2023-04-07T23:16:06.754Z,34.70
2023-04-07T23:18:34.899Z,30.90
2023-04-07T23:21:03.552Z,29.50
2023-04-07T23:23:31.759Z,29.90
2023-04-07T23:26:00.102Z,36.60
2023-04-07T23:28:28.427Z,33.60
2023-04-07T23:30:57.184Z,30.30
2023-04-07T23:33:25.286Z,35.60
2023-04-07T23:35:53.446Z,30.40
2023-04-07T23:38:22.119Z,31.00
2023-04-07T23:40:50.312Z,29.60
2023-04-07T23:43:18.898Z,31.20
2023-04-07T23:45:47.060Z,27.60
2023-04-07T23:48:15.842Z,28.20
2023-04-07T23:50:44.214Z,31.20
2023-04-07T23:53:12.250Z,35.20
2023-04-07T23:55:40.442Z,35.80
2023-04-07T23:58:08.745Z,26.60
